sensor_id;sensor_type;location;lat;lon;timestamp;pressure;altitude;pressure_sealevel;temperature;humidity
34241;BME280;20503;50.200;19.508;2023-02-19T00:01:53;101344.23;;;6.26;100.00
34241;BME280;20503;50.200;19.508;2023-02-19T00:07:02;101340.13;;;6.22;100.00
34241;BME280;20503;50.200;19.508;2023-02-19T00:12:08;101343.19;;;6.19;100.00
34241;BME280;20503;50.200;19.508;2023-02-19T00:17:16;101336.73;;;6.20;100.00
34241;BME280;20503;50.200;19.508;2023-02-19T00:22:24;101321.45;;;6.19;100.00
34241;BME280;20503;50.200;19.508;2023-02-19T00:27:31;101332.13;;;6.13;100.00
34241;BME280;20503;50.200;19.508;2023-02-19T00:32:39;101320.40;;;6.04;100.00
34241;BME280;20503;50.200;19.508;2023-02-19T00:37:47;101319.37;;;5.97;100.00
34241;BME280;20503;50.200;19.508;2023-02-19T00:42:55;101315.29;;;5.93;100.00
34241;BME280;20503;50.200;19.508;2023-02-19T00:48:02;101326.99;;;5.94;100.00
34241;BME280;20503;50.200;19.508;2023-02-19T00:53:10;101329.36;;;5.89;100.00
34241;BME280;20503;50.200;19.508;2023-02-19T00:58:18;101322.23;;;5.88;100.00
34241;BME280;20503;50.200;19.508;2023-02-19T01:03:26;101322.56;;;5.85;100.00
34241;BME280;20503;50.200;19.508;2023-02-19T01:08:34;101307.26;;;5.84;100.00
34241;BME280;20503;50.200;19.508;2023-02-19T01:13:42;101300.50;;;5.88;100.00
34241;BME280;20503;50.200;19.508;2023-02-19T01:18:48;101304.05;;;5.88;100.00
34241;BME280;20503;50.200;19.508;2023-02-19T01:23:56;101300.69;;;5.94;100.00
34241;BME280;20503;50.200;19.508;2023-02-19T01:29:03;101298.31;;;5.99;100.00
34241;BME280;20503;50.200;19.508;2023-02-19T01:34:11;101302.72;;;6.00;100.00
34241;BME280;20503;50.200;19.508;2023-02-19T01:39:19;101286.09;;;5.95;100.00
34241;BME280;20503;50.200;19.508;2023-02-19T01:49:49;101270.25;;;5.83;100.00
34241;BME280;20503;50.200;19.508;2023-02-19T01:54:52;101272.80;;;5.84;100.00
34241;BME280;20503;50.200;19.508;2023-02-19T02:00:00;101267.71;;;5.89;100.00
34241;BME280;20503;50.200;19.508;2023-02-19T02:05:03;101267.37;;;5.84;100.00
34241;BME280;20503;50.200;19.508;2023-02-19T02:10:08;101254.80;;;5.83;100.00
34241;BME280;20503;50.200;19.508;2023-02-19T02:15:23;101256.51;;;5.84;100.00
34241;BME280;20503;50.200;19.508;2023-02-19T02:20:43;101251.08;;;5.84;100.00
34241;BME280;20503;50.200;19.508;2023-02-19T02:31:20;101241.91;;;5.85;100.00
34241;BME280;20503;50.200;19.508;2023-02-19T02:36:07;101228.34;;;5.85;100.00
34241;BME280;20503;50.200;19.508;2023-02-19T02:41:11;101221.05;;;5.86;100.00
34241;BME280;20503;50.200;19.508;2023-02-19T02:46:19;101228.67;;;5.90;100.00
34241;BME280;20503;50.200;19.508;2023-02-19T02:56:37;101212.37;;;5.90;100.00
34241;BME280;20503;50.200;19.508;2023-02-19T03:07:08;101210.67;;;5.89;100.00
34241;BME280;20503;50.200;19.508;2023-02-19T03:12:15;101213.05;;;5.92;100.00
34241;BME280;20503;50.200;19.508;2023-02-19T03:17:45;101217.48;;;5.93;100.00
34241;BME280;20503;50.200;19.508;2023-02-19T03:22:59;101223.60;;;5.95;100.00
34241;BME280;20503;50.200;19.508;2023-02-19T03:28:04;101217.48;;;5.93;100.00
34241;BME280;20503;50.200;19.508;2023-02-19T03:33:15;101211.34;;;5.91;100.00
34241;BME280;20503;50.200;19.508;2023-02-19T03:38:25;101224.27;;;5.97;100.00
34241;BME280;20503;50.200;19.508;2023-02-19T03:43:52;101220.02;;;5.95;100.00
34241;BME280;20503;50.200;19.508;2023-02-19T03:59:15;101213.57;;;5.96;100.00
34241;BME280;20503;50.200;19.508;2023-02-19T04:04:26;101205.76;;;5.93;100.00
34241;BME280;20503;50.200;19.508;2023-02-19T04:09:36;101203.04;;;5.93;100.00
34241;BME280;20503;50.200;19.508;2023-02-19T04:14:45;101196.07;;;5.90;100.00
34241;BME280;20503;50.200;19.508;2023-02-19T04:19:50;101180.79;;;5.89;100.00
34241;BME280;20503;50.200;19.508;2023-02-19T04:24:53;101183.84;;;5.86;100.00
34241;BME280;20503;50.200;19.508;2023-02-19T04:29:56;101179.59;;;5.84;100.00
34241;BME280;20503;50.200;19.508;2023-02-19T04:34:57;101175.18;;;5.83;100.00
34241;BME280;20503;50.200;19.508;2023-02-19T04:39:58;101172.80;;;5.80;100.00
34241;BME280;20503;50.200;19.508;2023-02-19T04:44:59;101175.71;;;5.78;100.00
34241;BME280;20503;50.200;19.508;2023-02-19T04:50:00;101175.16;;;5.75;100.00
34241;BME280;20503;50.200;19.508;2023-02-19T04:55:02;101169.20;;;5.71;100.00
34241;BME280;20503;50.200;19.508;2023-02-19T05:00:03;101162.41;;;5.67;100.00
34241;BME280;20503;50.200;19.508;2023-02-19T05:05:05;101152.56;;;5.66;100.00
34241;BME280;20503;50.200;19.508;2023-02-19T05:10:07;101145.59;;;5.64;100.00
34241;BME280;20503;50.200;19.508;2023-02-19T05:15:08;101126.44;;;5.65;100.00
34241;BME280;20503;50.200;19.508;2023-02-19T05:20:09;101105.04;;;5.70;100.00
34241;BME280;20503;50.200;19.508;2023-02-19T05:25:11;101094.19;;;5.70;100.00
34241;BME280;20503;50.200;19.508;2023-02-19T05:30:12;101101.16;;;5.73;100.00
34241;BME280;20503;50.200;19.508;2023-02-19T05:35:14;101100.66;;;5.77;100.00
34241;BME280;20503;50.200;19.508;2023-02-19T05:40:22;101094.91;;;5.80;100.00
34241;BME280;20503;50.200;19.508;2023-02-19T05:45:30;101105.08;;;5.86;100.00
34241;BME280;20503;50.200;19.508;2023-02-19T05:50:38;101107.63;;;5.88;100.00
34241;BME280;20503;50.200;19.508;2023-02-19T05:55:46;101113.55;;;5.91;100.00
34241;BME280;20503;50.200;19.508;2023-02-19T06:00:54;101089.10;;;5.91;100.00
34241;BME280;20503;50.200;19.508;2023-02-19T06:06:03;101102.18;;;5.96;100.00
34241;BME280;20503;50.200;19.508;2023-02-19T06:11:10;101113.55;;;5.99;100.00
34241;BME280;20503;50.200;19.508;2023-02-19T06:16:18;101099.78;;;6.01;100.00
34241;BME280;20503;50.200;19.508;2023-02-19T06:21:26;101099.63;;;6.02;100.00
34241;BME280;20503;50.200;19.508;2023-02-19T06:26:34;101107.62;;;6.04;100.00
34241;BME280;20503;50.200;19.508;2023-02-19T06:31:41;101112.04;;;6.05;100.00
34241;BME280;20503;50.200;19.508;2023-02-19T06:36:49;101099.78;;;6.01;100.00
34241;BME280;20503;50.200;19.508;2023-02-19T06:41:57;101106.41;;;6.06;100.00
34241;BME280;20503;50.200;19.508;2023-02-19T06:47:04;101107.44;;;6.05;100.00
34241;BME280;20503;50.200;19.508;2023-02-19T06:52:12;101099.95;;;6.07;100.00
34241;BME280;20503;50.200;19.508;2023-02-19T07:01:33;101096.06;;;6.18;100.00
34241;BME280;20503;50.200;19.508;2023-02-19T07:06:39;101090.75;;;6.24;100.00
34241;BME280;20503;50.200;19.508;2023-02-19T07:11:46;101085.32;;;6.24;100.00
34241;BME280;20503;50.200;19.508;2023-02-19T07:16:54;101082.08;;;6.29;100.00
34241;BME280;20503;50.200;19.508;2023-02-19T07:22:01;101082.75;;;6.31;100.00
34241;BME280;20503;50.200;19.508;2023-02-19T07:27:09;101087.17;;;6.32;100.00
34241;BME280;20503;50.200;19.508;2023-02-19T07:32:17;101076.80;;;6.35;100.00
34241;BME280;20503;50.200;19.508;2023-02-19T07:37:24;101076.45;;;6.38;100.00
34241;BME280;20503;50.200;19.508;2023-02-19T07:42:32;101067.94;;;6.41;100.00
34241;BME280;20503;50.200;19.508;2023-02-19T07:47:40;101066.75;;;6.44;100.00
34241;BME280;20503;50.200;19.508;2023-02-19T07:52:48;101071.00;;;6.46;100.00
34241;BME280;20503;50.200;19.508;2023-02-19T07:57:57;101058.24;;;6.47;100.00
34241;BME280;20503;50.200;19.508;2023-02-19T08:03:05;101054.65;;;6.54;100.00
34241;BME280;20503;50.200;19.508;2023-02-19T08:08:13;101055.82;;;6.60;100.00
34241;BME280;20503;50.200;19.508;2023-02-19T08:13:20;101062.43;;;6.65;100.00
34241;BME280;20503;50.200;19.508;2023-02-19T08:18:30;101053.16;;;6.82;100.00
34241;BME280;20503;50.200;19.508;2023-02-19T08:23:37;101046.30;;;6.94;100.00
34241;BME280;20503;50.200;19.508;2023-02-19T08:28:44;101048.16;;;6.94;100.00
34241;BME280;20503;50.200;19.508;2023-02-19T08:33:52;101054.50;;;6.86;100.00
34241;BME280;20503;50.200;19.508;2023-02-19T08:39:00;101060.83;;;6.79;100.00
34241;BME280;20503;50.200;19.508;2023-02-19T08:44:07;101050.60;;;6.81;100.00
34241;BME280;20503;50.200;19.508;2023-02-19T08:49:15;101059.27;;;6.84;100.00
34241;BME280;20503;50.200;19.508;2023-02-19T08:54:23;101074.26;;;6.80;100.00
34241;BME280;20503;50.200;19.508;2023-02-19T08:59:31;101066.84;;;6.66;100.00
34241;BME280;20503;50.200;19.508;2023-02-19T09:04:38;101071.05;;;6.22;100.00
34241;BME280;20503;50.200;19.508;2023-02-19T09:09:46;101081.57;;;6.25;100.00
34241;BME280;20503;50.200;19.508;2023-02-19T09:14:54;101083.11;;;6.36;100.00
34241;BME280;20503;50.200;19.508;2023-02-19T09:20:01;101081.37;;;6.43;100.00
34241;BME280;20503;50.200;19.508;2023-02-19T09:25:09;101071.16;;;6.45;100.00
34241;BME280;20503;50.200;19.508;2023-02-19T09:30:17;101072.70;;;6.47;100.00
34241;BME280;20503;50.200;19.508;2023-02-19T09:35:24;101083.88;;;6.52;100.00
34241;BME280;20503;50.200;19.508;2023-02-19T09:40:34;101087.13;;;6.48;100.00
34241;BME280;20503;50.200;19.508;2023-02-19T09:45:40;101088.49;;;6.52;100.00
34241;BME280;20503;50.200;19.508;2023-02-19T09:50:48;101082.36;;;6.50;100.00
34241;BME280;20503;50.200;19.508;2023-02-19T09:55:56;101082.55;;;6.48;100.00
34241;BME280;20503;50.200;19.508;2023-02-19T10:01:04;101093.58;;;6.47;100.00
34241;BME280;20503;50.200;19.508;2023-02-19T10:06:19;101107.05;;;6.32;100.00
34241;BME280;20503;50.200;19.508;2023-02-19T10:11:24;101104.90;;;6.04;100.00
34241;BME280;20503;50.200;19.508;2023-02-19T10:16:28;101132.91;;;5.88;100.00
34241;BME280;20503;50.200;19.508;2023-02-19T10:21:36;101120.49;;;5.78;100.00
34241;BME280;20503;50.200;19.508;2023-02-19T10:26:43;101128.79;;;5.76;100.00
34241;BME280;20503;50.200;19.508;2023-02-19T10:37:03;101153.02;;;4.89;100.00
34241;BME280;20503;50.200;19.508;2023-02-19T10:47:21;101173.51;;;4.50;100.00
34241;BME280;20503;50.200;19.508;2023-02-19T10:52:28;101181.67;;;4.58;100.00
34241;BME280;20503;50.200;19.508;2023-02-19T10:57:31;101187.18;;;4.74;100.00
34241;BME280;20503;50.200;19.508;2023-02-19T11:02:37;101189.98;;;4.56;100.00
34241;BME280;20503;50.200;19.508;2023-02-19T11:07:51;101194.30;;;4.75;100.00
34241;BME280;20503;50.200;19.508;2023-02-19T11:13:00;101198.31;;;4.96;100.00
34241;BME280;20503;50.200;19.508;2023-02-19T11:18:18;101204.89;;;4.86;100.00
34241;BME280;20503;50.200;19.508;2023-02-19T11:28:37;101224.96;;;5.01;100.00
34241;BME280;20503;50.200;19.508;2023-02-19T11:33:49;101215.49;;;4.71;100.00
34241;BME280;20503;50.200;19.508;2023-02-19T11:38:51;101250.96;;;4.35;100.00
34241;BME280;20503;50.200;19.508;2023-02-19T11:44:05;101261.97;;;3.98;100.00
34241;BME280;20503;50.200;19.508;2023-02-19T11:49:20;101262.74;;;3.91;100.00
34241;BME280;20503;50.200;19.508;2023-02-19T11:59:46;101272.81;;;4.16;100.00
34241;BME280;20503;50.200;19.508;2023-02-19T12:15:34;101301.69;;;4.07;100.00
34241;BME280;20503;50.200;19.508;2023-02-19T12:20:43;101314.88;;;3.93;100.00
34241;BME280;20503;50.200;19.508;2023-02-19T12:26:00;101315.13;;;3.99;100.00
34241;BME280;20503;50.200;19.508;2023-02-19T12:41:41;101318.87;;;4.16;100.00
34241;BME280;20503;50.200;19.508;2023-02-19T12:46:48;101323.59;;;4.14;100.00
34241;BME280;20503;50.200;19.508;2023-02-19T12:51:59;101335.97;;;4.34;100.00
34241;BME280;20503;50.200;19.508;2023-02-19T12:57:09;101343.41;;;4.32;100.00
34241;BME280;20503;50.200;19.508;2023-02-19T13:02:25;101341.30;;;4.26;100.00
34241;BME280;20503;50.200;19.508;2023-02-19T13:07:29;101348.11;;;4.12;100.00
34241;BME280;20503;50.200;19.508;2023-02-19T13:12:37;101350.29;;;4.26;100.00
34241;BME280;20503;50.200;19.508;2023-02-19T13:17:46;101358.13;;;4.47;100.00
34241;BME280;20503;50.200;19.508;2023-02-19T13:28:24;101387.28;;;4.18;100.00
34241;BME280;20503;50.200;19.508;2023-02-19T13:33:36;101401.95;;;3.98;100.00
34241;BME280;20503;50.200;19.508;2023-02-19T13:38:42;101408.61;;;3.76;100.00
34241;BME280;20503;50.200;19.508;2023-02-19T13:43:45;101417.31;;;3.70;100.00
34241;BME280;20503;50.200;19.508;2023-02-19T13:48:47;101422.93;;;3.60;100.00
34241;BME280;20503;50.200;19.508;2023-02-19T13:53:57;101438.00;;;3.62;100.00
34241;BME280;20503;50.200;19.508;2023-02-19T14:20:02;101464.80;;;3.65;100.00
34241;BME280;20503;50.200;19.508;2023-02-19T14:25:13;101470.05;;;3.66;100.00
34241;BME280;20503;50.200;19.508;2023-02-19T14:30:14;101488.30;;;3.64;100.00
34241;BME280;20503;50.200;19.508;2023-02-19T14:35:18;101496.57;;;3.54;100.00
34241;BME280;20503;50.200;19.508;2023-02-19T14:40:25;101497.32;;;3.46;100.00
34241;BME280;20503;50.200;19.508;2023-02-19T14:45:29;101520.95;;;3.44;100.00
34241;BME280;20503;50.200;19.508;2023-02-19T14:50:35;101520.13;;;3.34;100.00
34241;BME280;20503;50.200;19.508;2023-02-19T14:55:38;101514.27;;;3.29;100.00
34241;BME280;20503;50.200;19.508;2023-02-19T15:00:42;101531.96;;;3.14;100.00
34241;BME280;20503;50.200;19.508;2023-02-19T15:05:44;101522.68;;;3.17;100.00
34241;BME280;20503;50.200;19.508;2023-02-19T15:10:46;101538.21;;;3.15;100.00
34241;BME280;20503;50.200;19.508;2023-02-19T15:15:48;101548.32;;;3.03;100.00
34241;BME280;20503;50.200;19.508;2023-02-19T15:21:00;101543.48;;;2.97;100.00
34241;BME280;20503;50.200;19.508;2023-02-19T15:26:02;101555.13;;;2.88;100.00
34241;BME280;20503;50.200;19.508;2023-02-19T15:31:05;101561.53;;;2.87;100.00
34241;BME280;20503;50.200;19.508;2023-02-19T15:36:08;101569.22;;;2.82;100.00
34241;BME280;20503;50.200;19.508;2023-02-19T15:41:18;101585.56;;;2.81;100.00
34241;BME280;20503;50.200;19.508;2023-02-19T15:46:23;101593.52;;;2.73;100.00
34241;BME280;20503;50.200;19.508;2023-02-19T15:56:42;101611.36;;;2.55;100.00
34241;BME280;20503;50.200;19.508;2023-02-19T16:01:45;101628.96;;;2.40;100.00
34241;BME280;20503;50.200;19.508;2023-02-19T16:07:01;101643.86;;;2.34;100.00
34241;BME280;20503;50.200;19.508;2023-02-19T16:12:00;101676.55;;;2.31;100.00
34241;BME280;20503;50.200;19.508;2023-02-19T16:17:11;101680.80;;;2.34;100.00
34241;BME280;20503;50.200;19.508;2023-02-19T16:22:21;101692.48;;;2.34;100.00
34241;BME280;20503;50.200;19.508;2023-02-19T16:27:34;101705.26;;;2.32;100.00
34241;BME280;20503;50.200;19.508;2023-02-19T16:32:37;101705.45;;;2.20;100.00
34241;BME280;20503;50.200;19.508;2023-02-19T16:37:40;101719.42;;;2.25;100.00
34241;BME280;20503;50.200;19.508;2023-02-19T16:48:00;101730.68;;;2.30;100.00
34241;BME280;20503;50.200;19.508;2023-02-19T16:53:03;101735.48;;;2.26;100.00
34241;BME280;20503;50.200;19.508;2023-02-19T16:58:05;101761.50;;;2.27;100.00
34241;BME280;20503;50.200;19.508;2023-02-19T17:03:09;101767.16;;;2.24;100.00
34241;BME280;20503;50.200;19.508;2023-02-19T17:13:25;101799.58;;;2.24;100.00
34241;BME280;20503;50.200;19.508;2023-02-19T17:18:27;101798.73;;;2.24;100.00
34241;BME280;20503;50.200;19.508;2023-02-19T17:23:28;101812.35;;;2.22;100.00
34241;BME280;20503;50.200;19.508;2023-02-19T17:28:29;101801.82;;;2.19;100.00
34241;BME280;20503;50.200;19.508;2023-02-19T17:33:30;101813.22;;;2.23;100.00
34241;BME280;20503;50.200;19.508;2023-02-19T17:38:32;101819.39;;;2.14;100.00
34241;BME280;20503;50.200;19.508;2023-02-19T17:43:33;101805.77;;;2.15;100.00
34241;BME280;20503;50.200;19.508;2023-02-19T17:48:35;101833.27;;;2.09;100.00
34241;BME280;20503;50.200;19.508;2023-02-19T17:53:37;101851.97;;;2.01;100.00
34241;BME280;20503;50.200;19.508;2023-02-19T17:58:38;101864.03;;;1.86;100.00
34241;BME280;20503;50.200;19.508;2023-02-19T18:03:39;101863.05;;;1.77;100.00
34241;BME280;20503;50.200;19.508;2023-02-19T18:08:46;101877.33;;;1.68;100.00
34241;BME280;20503;50.200;19.508;2023-02-19T18:13:49;101883.70;;;1.56;100.00
34241;BME280;20503;50.200;19.508;2023-02-19T18:18:50;101892.52;;;1.47;100.00
34241;BME280;20503;50.200;19.508;2023-02-19T18:23:52;101896.70;;;1.40;100.00
34241;BME280;20503;50.200;19.508;2023-02-19T18:28:55;101916.08;;;1.56;100.00
34241;BME280;20503;50.200;19.508;2023-02-19T18:34:04;101930.66;;;1.64;100.00
34241;BME280;20503;50.200;19.508;2023-02-19T18:39:11;101939.86;;;1.73;100.00
34241;BME280;20503;50.200;19.508;2023-02-19T18:44:21;101944.99;;;1.65;100.00
34241;BME280;20503;50.200;19.508;2023-02-19T18:49:27;101944.65;;;1.58;100.00
34241;BME280;20503;50.200;19.508;2023-02-19T18:54:34;101939.13;;;1.49;100.00
34241;BME280;20503;50.200;19.508;2023-02-19T18:59:42;101941.69;;;1.50;100.00
34241;BME280;20503;50.200;19.508;2023-02-19T19:04:51;101946.73;;;1.55;100.00
34241;BME280;20503;50.200;19.508;2023-02-19T19:09:59;101942.42;;;1.52;100.00
34241;BME280;20503;50.200;19.508;2023-02-19T19:15:06;101959.36;;;1.43;100.00
34241;BME280;20503;50.200;19.508;2023-02-19T19:20:16;101962.42;;;1.39;100.00
34241;BME280;20503;50.200;19.508;2023-02-19T19:25:21;101971.73;;;1.35;100.00
34241;BME280;20503;50.200;19.508;2023-02-19T19:30:29;101974.15;;;1.27;100.00
34241;BME280;20503;50.200;19.508;2023-02-19T19:35:37;101985.43;;;1.21;100.00
34241;BME280;20503;50.200;19.508;2023-02-19T19:40:45;101980.74;;;1.12;100.00
34241;BME280;20503;50.200;19.508;2023-02-19T19:45:54;101987.11;;;1.11;100.00
34241;BME280;20503;50.200;19.508;2023-02-19T19:51:02;102000.20;;;1.04;100.00
34241;BME280;20503;50.200;19.508;2023-02-19T19:56:10;102012.54;;;0.96;100.00
34241;BME280;20503;50.200;19.508;2023-02-19T20:01:18;102014.84;;;0.89;100.00
34241;BME280;20503;50.200;19.508;2023-02-19T20:06:27;102017.28;;;0.81;100.00
34241;BME280;20503;50.200;19.508;2023-02-19T20:11:33;102020.44;;;0.75;100.00
34241;BME280;20503;50.200;19.508;2023-02-19T20:16:41;102025.30;;;0.70;100.00
34241;BME280;20503;50.200;19.508;2023-02-19T20:21:52;102015.39;;;0.71;100.00
34241;BME280;20503;50.200;19.508;2023-02-19T20:26:59;102024.15;;;0.62;100.00
34241;BME280;20503;50.200;19.508;2023-02-19T20:32:05;102027.96;;;0.59;100.00
34241;BME280;20503;50.200;19.508;2023-02-19T20:37:14;102017.02;;;0.50;100.00
34241;BME280;20503;50.200;19.508;2023-02-19T20:42:21;102043.53;;;0.43;100.00
34241;BME280;20503;50.200;19.508;2023-02-19T20:47:29;102033.42;;;0.34;100.00
34241;BME280;20503;50.200;19.508;2023-02-19T20:52:36;102053.48;;;0.30;100.00
34241;BME280;20503;50.200;19.508;2023-02-19T20:57:47;102058.95;;;0.29;100.00
34241;BME280;20503;50.200;19.508;2023-02-19T21:02:58;102071.80;;;0.25;100.00
34241;BME280;20503;50.200;19.508;2023-02-19T21:08:09;102072.41;;;0.29;100.00
34241;BME280;20503;50.200;19.508;2023-02-19T21:13:19;102076.96;;;0.28;100.00
34241;BME280;20503;50.200;19.508;2023-02-19T21:18:30;102081.23;;;0.31;100.00
34241;BME280;20503;50.200;19.508;2023-02-19T21:23:38;102088.46;;;0.30;100.00
34241;BME280;20503;50.200;19.508;2023-02-19T21:28:51;102096.88;;;0.26;100.00
34241;BME280;20503;50.200;19.508;2023-02-19T21:33:58;102109.48;;;0.25;100.00
34241;BME280;20503;50.200;19.508;2023-02-19T21:39:11;102112.27;;;0.24;100.00
34241;BME280;20503;50.200;19.508;2023-02-19T21:44:20;102118.18;;;0.29;100.00
34241;BME280;20503;50.200;19.508;2023-02-19T21:49:31;102121.19;;;0.24;100.00
34241;BME280;20503;50.200;19.508;2023-02-19T21:54:42;102126.93;;;0.20;100.00
34241;BME280;20503;50.200;19.508;2023-02-19T21:59:52;102127.77;;;0.20;100.00
34241;BME280;20503;50.200;19.508;2023-02-19T22:05:03;102142.34;;;0.18;100.00
34241;BME280;20503;50.200;19.508;2023-02-19T22:10:14;102134.36;;;0.16;100.00
34241;BME280;20503;50.200;19.508;2023-02-19T22:15:25;102135.23;;;0.17;100.00
34241;BME280;20503;50.200;19.508;2023-02-19T22:20:36;102139.64;;;0.18;100.00
34241;BME280;20503;50.200;19.508;2023-02-19T22:25:46;102143.70;;;0.23;100.00
34241;BME280;20503;50.200;19.508;2023-02-19T22:30:57;102144.58;;;0.24;100.00
34241;BME280;20503;50.200;19.508;2023-02-19T22:36:18;102155.88;;;0.29;100.00
34241;BME280;20503;50.200;19.508;2023-02-19T22:41:20;102153.63;;;0.23;100.00
34241;BME280;20503;50.200;19.508;2023-02-19T22:46:29;102169.46;;;0.27;100.00
34241;BME280;20503;50.200;19.508;2023-02-19T22:51:47;102176.21;;;0.33;100.00
34241;BME280;20503;50.200;19.508;2023-02-19T22:56:52;102174.71;;;0.29;100.00
34241;BME280;20503;50.200;19.508;2023-02-19T23:02:02;102175.69;;;0.28;100.00
34241;BME280;20503;50.200;19.508;2023-02-19T23:07:12;102180.52;;;0.35;100.00
34241;BME280;20503;50.200;19.508;2023-02-19T23:12:23;102183.34;;;0.34;100.00
34241;BME280;20503;50.200;19.508;2023-02-19T23:17:34;102189.58;;;0.34;100.00
34241;BME280;20503;50.200;19.508;2023-02-19T23:22:45;102204.22;;;0.43;100.00
34241;BME280;20503;50.200;19.508;2023-02-19T23:27:56;102211.55;;;0.41;100.00
34241;BME280;20503;50.200;19.508;2023-02-19T23:33:06;102201.52;;;0.43;100.00
